Time;durP1;ratioP1;P1;durP2;ratioP2;P2;SDS_P1;SDS_P2;PMS_P1;PMS_P2;Temp;Humidity;BMP_temperature;BMP_pressure;BME280_temperature;BME280_humidity;BME280_pressure;Samples;Min_cycle;Max_cycle;Signal;HPM_P1;HPM_P2
2022/07/03 00:01:34;;;;;;;6.53;4.80;;;13.50;99.90;;;;;;5054370;28;20266;-76
2022/07/03 00:04:02;;;;;;;5.53;4.67;;;13.50;99.90;;;;;;5053960;28;20748;-76
2022/07/03 00:06:33;;;;;;;6.17;4.80;;;13.50;99.90;;;;;;5054753;28;20231;-76
2022/07/03 00:09:04;;;;;;;6.80;4.77;;;13.50;99.90;;;;;;5053714;28;20302;-79
2022/07/03 00:11:33;;;;;;;5.10;4.53;;;13.50;99.90;;;;;;5044103;28;20730;-75
2022/07/03 00:14:01;;;;;;;6.67;4.80;;;13.50;99.90;;;;;;5033765;28;20268;-77
2022/07/03 00:16:30;;;;;;;5.97;4.73;;;13.50;99.90;;;;;;5033694;28;20678;-76
2022/07/03 00:18:59;;;;;;;6.30;5.00;;;13.50;99.90;;;;;;5033461;28;20189;-77
2022/07/03 00:21:32;;;;;;;6.67;4.53;;;13.50;99.90;;;;;;5033450;28;20252;-77
2022/07/03 00:24:04;;;;;;;6.27;4.67;;;13.50;99.90;;;;;;5033729;28;20190;-76
2022/07/03 00:26:35;;;;;;;7.07;4.87;;;13.50;99.90;;;;;;5045744;28;20254;-76
2022/07/03 00:29:04;;;;;;;6.00;4.60;;;13.50;99.90;;;;;;5053597;28;20196;-77
2022/07/03 00:31:34;;;;;;;5.13;4.63;;;13.50;99.90;;;;;;5053621;28;20236;-78
2022/07/03 00:34:04;;;;;;;6.60;4.87;;;13.50;99.90;;;;;;5053367;28;20260;-77
2022/07/03 00:36:36;;;;;;;5.07;3.93;;;13.50;99.90;;;;;;5053704;28;20196;-77
2022/07/03 00:39:05;;;;;;;5.87;4.40;;;13.50;99.90;;;;;;5053024;28;20231;-78
2022/07/03 00:41:35;;;;;;;5.77;4.13;;;13.60;99.90;;;;;;5053256;28;20277;-78
2022/07/03 00:44:04;;;;;;;6.67;4.50;;;13.60;99.90;;;;;;5053438;28;20208;-77
2022/07/03 00:46:32;;;;;;;6.07;4.40;;;13.60;99.90;;;;;;5053365;28;20291;-76
2022/07/03 00:49:02;;;;;;;6.53;4.17;;;13.60;99.90;;;;;;5053043;28;20209;-75
2022/07/03 00:51:31;;;;;;;4.43;3.80;;;13.60;99.90;;;;;;5052809;28;20244;-79
2022/07/03 00:53:59;;;;;;;6.30;4.43;;;13.70;99.90;;;;;;5053250;28;20231;-78
2022/07/03 00:56:30;;;;;;;5.93;4.30;;;13.70;99.90;;;;;;5053507;28;20283;-76
2022/07/03 00:59:00;;;;;;;4.90;4.10;;;13.80;99.90;;;;;;5052420;28;20289;-77
2022/07/03 01:01:32;;;;;;;5.97;4.27;;;13.80;99.90;;;;;;5053205;28;20200;-77
2022/07/03 01:04:14;;;;;;;5.27;3.60;;;13.90;99.90;;;;;;5053208;28;20237;-77
2022/07/03 01:06:51;;;;;;;6.23;3.90;;;13.90;99.90;;;;;;5052683;28;20196;-76
2022/07/03 01:09:30;;;;;;;6.87;4.03;;;13.90;99.90;;;;;;5052897;28;20227;-79
2022/07/03 01:12:03;;;;;;;5.87;4.13;;;14.00;99.90;;;;;;5040226;28;20208;-74
2022/07/03 01:14:44;;;;;;;4.87;4.27;;;14.00;99.90;;;;;;5034887;28;20260;-75
2022/07/03 01:17:21;;;;;;;5.73;4.60;;;14.00;99.90;;;;;;5032928;28;20199;-75
2022/07/03 01:19:50;;;;;;;5.40;4.20;;;14.10;99.90;;;;;;5033405;28;20239;-74
2022/07/03 01:22:33;;;;;;;6.37;4.23;;;14.10;99.90;;;;;;5033158;28;20267;-76
2022/07/03 01:25:17;;;;;;;7.90;4.13;;;14.10;99.90;;;;;;5044899;28;20283;-76
2022/07/03 01:28:08;;;;;;;5.13;3.90;;;14.10;99.90;;;;;;5052864;28;20234;-76
2022/07/03 01:30:39;;;;;;;4.53;3.93;;;14.10;99.90;;;;;;5052911;28;20219;-76
2022/07/03 01:33:08;;;;;;;6.23;4.07;;;14.10;99.90;;;;;;5052858;28;20620;-75
2022/07/03 01:35:39;;;;;;;5.50;4.10;;;14.10;99.90;;;;;;5052524;28;20757;-73
2022/07/03 01:38:09;;;;;;;5.33;4.03;;;14.10;99.90;;;;;;5053184;28;20252;-73
2022/07/03 01:40:40;;;;;;;4.70;4.17;;;14.10;99.90;;;;;;5052745;28;20224;-77
2022/07/03 01:43:11;;;;;;;6.30;4.40;;;14.10;99.90;;;;;;5052830;28;20287;-77
2022/07/03 01:45:43;;;;;;;6.10;4.33;;;14.10;99.90;;;;;;5052786;28;20204;-75
2022/07/03 01:48:13;;;;;;;5.60;5.03;;;14.10;99.90;;;;;;5053288;28;20570;-75
2022/07/03 01:50:43;;;;;;;7.17;4.47;;;14.00;99.90;;;;;;5052712;28;20231;-76
2022/07/03 01:53:12;;;;;;;7.10;4.47;;;14.00;99.90;;;;;;5052665;28;20592;-75
2022/07/03 01:55:43;;;;;;;7.07;4.20;;;14.00;99.90;;;;;;5052703;28;20285;-77
2022/07/03 01:58:12;;;;;;;5.53;4.30;;;14.00;99.90;;;;;;5052843;28;20260;-77
2022/07/03 02:00:47;;;;;;;5.37;4.20;;;14.00;99.90;;;;;;5053543;28;20212;-75
2022/07/03 02:03:25;;;;;;;6.27;4.70;;;14.00;99.90;;;;;;5057147;28;20238;-75
2022/07/03 02:06:04;;;;;;;6.63;4.50;;;14.00;99.90;;;;;;5057467;28;20250;-74
2022/07/03 02:08:41;;;;;;;7.77;4.53;;;14.00;99.90;;;;;;5066280;28;20290;-74
2022/07/03 02:11:12;;;;;;;6.20;4.50;;;14.00;99.90;;;;;;5049722;28;20201;-76
2022/07/03 02:13:52;;;;;;;5.70;4.47;;;13.90;99.90;;;;;;5034056;28;20240;-76
2022/07/03 02:16:23;;;;;;;5.07;4.47;;;13.90;99.90;;;;;;5036488;28;20243;-76
2022/07/03 02:19:03;;;;;;;6.57;4.20;;;13.90;99.90;;;;;;5031526;28;20639;-79
2022/07/03 02:21:32;;;;;;;5.03;4.37;;;13.80;99.90;;;;;;5031951;28;20535;-79
2022/07/03 02:24:14;;;;;;;4.30;3.90;;;13.80;99.90;;;;;;5046021;28;20239;-77
2022/07/03 02:26:43;;;;;;;7.57;4.90;;;13.60;99.90;;;;;;5051516;28;20299;-79
2022/07/03 02:29:16;;;;;;;5.77;4.33;;;13.70;99.90;;;;;;5051216;28;20243;-78
2022/07/03 02:31:46;;;;;;;5.90;4.50;;;13.60;99.90;;;;;;5051602;28;20188;-76
2022/07/03 02:34:17;;;;;;;5.20;4.70;;;13.60;99.90;;;;;;5051767;28;20192;-79
2022/07/03 02:36:48;;;;;;;5.03;4.50;;;13.60;99.90;;;;;;5051689;28;20737;-78
2022/07/03 02:39:24;;;;;;;8.73;4.57;;;13.50;99.90;;;;;;5052105;28;20531;-77
2022/07/03 02:41:58;;;;;;;6.23;4.20;;;13.50;99.90;;;;;;5051581;28;20663;-78
2022/07/03 02:44:35;;;;;;;5.83;4.20;;;13.40;99.90;;;;;;5051746;28;20224;-78
2022/07/03 02:47:11;;;;;;;6.07;4.40;;;13.40;99.90;;;;;;5051605;28;20298;-79
2022/07/03 02:49:51;;;;;;;5.40;4.20;;;13.40;99.90;;;;;;5051512;28;20296;-76
2022/07/03 02:52:29;;;;;;;7.03;4.40;;;13.30;99.90;;;;;;5051467;28;20270;-81
2022/07/03 02:55:00;;;;;;;5.57;4.17;;;13.30;99.90;;;;;;5051270;28;20275;-79
2022/07/03 02:57:38;;;;;;;4.90;3.77;;;13.30;99.90;;;;;;5051053;28;20247;-77
2022/07/03 03:00:09;;;;;;;5.43;3.73;;;13.20;99.90;;;;;;5051477;28;20203;-76
2022/07/03 03:02:52;;;;;;;6.03;4.37;;;13.20;99.90;;;;;;5051356;28;20869;-76
2022/07/03 03:05:31;;;;;;;4.67;4.17;;;13.20;99.90;;;;;;5051487;28;20630;-73
2022/07/03 03:08:08;;;;;;;7.30;4.40;;;13.10;99.90;;;;;;5051157;28;20315;-75
2022/07/03 03:10:38;;;;;;;5.23;4.33;;;13.10;99.90;;;;;;5049178;28;20227;-74
2022/07/03 03:13:08;;;;;;;4.70;3.77;;;13.10;99.90;;;;;;5030564;28;23297;-74
2022/07/03 03:15:39;;;;;;;8.80;4.37;;;13.10;99.90;;;;;;5031102;28;20245;-75
2022/07/03 03:18:11;;;;;;;4.83;4.03;;;13.10;99.90;;;;;;5030978;28;20729;-78
2022/07/03 03:20:42;;;;;;;5.40;4.20;;;13.10;99.90;;;;;;5031293;28;20229;-73
2022/07/03 03:23:27;;;;;;;5.80;3.97;;;13.10;99.90;;;;;;5044137;28;20729;-76
2022/07/03 03:25:58;;;;;;;5.77;3.97;;;13.00;99.90;;;;;;5034375;28;20671;-75
2022/07/03 03:28:26;;;;;;;5.23;4.00;;;13.00;99.90;;;;;;5034802;28;20271;-75
2022/07/03 03:30:56;;;;;;;5.90;4.27;;;13.00;99.90;;;;;;5034509;28;20208;-75
2022/07/03 03:33:25;;;;;;;5.53;3.93;;;13.00;99.90;;;;;;5034411;28;20216;-77
2022/07/03 03:35:53;;;;;;;4.57;3.60;;;13.00;99.90;;;;;;5034395;28;20323;-74
2022/07/03 03:38:21;;;;;;;5.00;3.83;;;13.00;99.90;;;;;;5034262;28;20209;-76
2022/07/03 03:40:50;;;;;;;6.00;4.00;;;13.00;99.90;;;;;;5034192;28;20248;-75
2022/07/03 03:43:19;;;;;;;5.50;3.80;;;13.00;99.90;;;;;;5034786;28;20745;-76
2022/07/03 03:45:48;;;;;;;5.60;3.90;;;13.00;99.90;;;;;;5034265;28;20305;-74
2022/07/03 03:48:18;;;;;;;5.17;3.70;;;13.00;99.90;;;;;;5034620;28;20209;-75
2022/07/03 03:50:46;;;;;;;6.00;3.60;;;13.00;99.90;;;;;;5034596;28;20263;-75
2022/07/03 03:53:16;;;;;;;3.93;3.50;;;13.10;99.90;;;;;;5034294;28;20240;-75
2022/07/03 03:55:54;;;;;;;4.83;3.50;;;13.10;99.90;;;;;;5034296;28;20275;-77
2022/07/03 03:58:22;;;;;;;4.00;3.60;;;13.10;99.90;;;;;;5033868;28;20616;-76
2022/07/03 04:00:53;;;;;;;4.73;3.40;;;13.20;99.90;;;;;;5034109;28;20327;-77
2022/07/03 04:03:23;;;;;;;4.93;3.80;;;13.20;99.90;;;;;;5034018;28;20252;-75
2022/07/03 04:05:51;;;;;;;4.40;3.50;;;13.30;99.90;;;;;;5043749;28;20262;-74
2022/07/03 04:08:19;;;;;;;5.83;3.70;;;13.30;99.90;;;;;;5054231;28;20251;-74
2022/07/03 04:10:47;;;;;;;5.73;3.50;;;13.30;99.90;;;;;;5050277;28;20242;-75
2022/07/03 04:13:16;;;;;;;4.80;3.80;;;13.40;99.90;;;;;;5033945;28;20268;-79
2022/07/03 04:15:46;;;;;;;4.10;3.70;;;13.40;99.90;;;;;;5034134;28;20364;-75
2022/07/03 04:18:14;;;;;;;6.27;3.30;;;13.50;99.90;;;;;;5045595;28;20291;-76
2022/07/03 04:20:44;;;;;;;5.77;3.37;;;13.50;99.90;;;;;;5053877;28;20212;-73
2022/07/03 04:23:13;;;;;;;6.00;3.67;;;13.50;99.90;;;;;;5053757;28;20597;-76
2022/07/03 04:25:41;;;;;;;4.53;3.60;;;13.60;99.90;;;;;;5053361;28;20232;-74
2022/07/03 04:28:10;;;;;;;5.63;3.47;;;13.60;99.90;;;;;;5053951;28;20254;-74
2022/07/03 04:30:47;;;;;;;6.57;3.43;;;13.60;99.90;;;;;;5053393;28;20272;-76
2022/07/03 04:33:16;;;;;;;5.30;3.60;;;13.70;99.90;;;;;;5052750;28;20206;-75
2022/07/03 04:35:45;;;;;;;4.30;3.90;;;13.60;99.90;;;;;;5053762;28;20778;-77
2022/07/03 04:38:14;;;;;;;5.77;3.57;;;13.70;99.90;;;;;;5053796;28;20248;-76
2022/07/03 04:40:42;;;;;;;4.23;3.40;;;13.70;99.90;;;;;;5054436;28;20212;-73
2022/07/03 04:43:10;;;;;;;5.43;3.57;;;13.80;99.90;;;;;;5055004;28;20255;-74
2022/07/03 04:45:38;;;;;;;4.23;3.57;;;13.80;99.90;;;;;;5053429;28;20287;-73
2022/07/03 04:48:07;;;;;;;4.73;3.90;;;13.80;99.90;;;;;;5053373;28;20647;-74
2022/07/03 04:50:35;;;;;;;5.97;3.50;;;13.90;99.90;;;;;;5053346;28;20627;-73
2022/07/03 04:53:04;;;;;;;4.60;3.60;;;14.00;99.90;;;;;;5052987;28;20230;-77
2022/07/03 04:55:32;;;;;;;5.20;3.53;;;14.00;99.90;;;;;;5055707;28;20243;-72
2022/07/03 04:58:01;;;;;;;6.37;3.70;;;14.20;99.90;;;;;;5053466;28;20679;-77
2022/07/03 05:00:29;;;;;;;4.40;3.53;;;14.20;99.90;;;;;;5053486;28;20269;-74
2022/07/03 05:02:57;;;;;;;4.60;3.77;;;14.40;99.90;;;;;;5053419;28;20706;-76
2022/07/03 05:05:26;;;;;;;5.60;3.90;;;14.50;99.90;;;;;;5053108;28;20211;-75
2022/07/03 05:07:54;;;;;;;4.73;3.27;;;14.60;99.90;;;;;;5053089;28;20282;-76
2022/07/03 05:10:23;;;;;;;5.40;3.50;;;14.60;99.90;;;;;;5052797;28;20291;-73
2022/07/03 05:12:51;;;;;;;6.60;3.00;;;14.70;99.90;;;;;;5033412;28;20275;-74
2022/07/03 05:15:20;;;;;;;3.33;3.00;;;14.80;99.90;;;;;;5042225;28;20236;-73
2022/07/03 05:17:49;;;;;;;6.40;3.23;;;14.80;99.90;;;;;;5033621;28;20303;-74
2022/07/03 05:20:28;;;;;;;6.13;3.00;;;14.90;99.90;;;;;;5050701;28;20697;-73
2022/07/03 05:22:57;;;;;;;4.07;3.00;;;15.00;99.90;;;;;;5052688;28;20188;-74
2022/07/03 05:25:28;;;;;;;4.43;2.93;;;15.10;99.90;;;;;;5052261;28;20943;-74
2022/07/03 05:27:58;;;;;;;4.80;3.80;;;15.20;99.90;;;;;;5052318;28;20220;-76
2022/07/03 05:30:26;;;;;;;4.27;2.83;;;15.30;99.90;;;;;;5052264;28;20212;-79
2022/07/03 05:32:55;;;;;;;4.53;3.20;;;15.30;99.90;;;;;;5052478;28;20662;-76
2022/07/03 05:35:23;;;;;;;3.70;3.00;;;15.50;99.90;;;;;;5052546;28;20235;-78
2022/07/03 05:37:52;;;;;;;3.77;2.90;;;15.60;99.90;;;;;;5049868;28;20255;-79
2022/07/03 05:40:20;;;;;;;3.30;2.83;;;15.70;99.90;;;;;;5053164;28;20259;-74
2022/07/03 05:42:49;;;;;;;4.07;2.60;;;15.80;99.90;;;;;;5052727;28;20236;-74
2022/07/03 05:45:17;;;;;;;3.10;2.77;;;16.00;99.90;;;;;;5052412;28;20296;-76
2022/07/03 05:47:45;;;;;;;4.17;2.77;;;16.20;99.90;;;;;;5053112;28;20204;-75
2022/07/03 05:50:14;;;;;;;3.57;2.70;;;16.40;99.90;;;;;;5052909;28;20631;-73
2022/07/03 05:52:42;;;;;;;3.63;2.40;;;16.70;99.90;;;;;;5053848;28;20200;-74
2022/07/03 05:55:10;;;;;;;5.77;2.53;;;17.30;99.90;;;;;;5051035;28;20263;-75
2022/07/03 05:57:39;;;;;;;4.40;2.20;;;18.20;99.90;;;;;;5053047;28;20264;-75
2022/07/03 06:00:10;;;;;;;3.23;1.90;;;19.70;99.90;;;;;;5053234;28;20239;-77
2022/07/03 06:02:38;;;;;;;4.27;1.87;;;21.80;99.90;;;;;;5053872;28;20239;-75
2022/07/03 06:05:07;;;;;;;2.10;1.90;;;23.50;99.90;;;;;;5053303;28;20247;-77
2022/07/03 06:07:35;;;;;;;3.27;1.83;;;24.70;99.90;;;;;;5053290;28;20250;-75
2022/07/03 06:10:04;;;;;;;2.13;1.83;;;25.70;99.90;;;;;;5052893;28;20259;-78
2022/07/03 06:12:32;;;;;;;2.20;1.67;;;26.70;99.90;;;;;;5035591;28;20271;-77
2022/07/03 06:15:02;;;;;;;2.22;1.60;;;27.50;99.90;;;;;;5033012;28;20701;-75
2022/07/03 06:17:31;;;;;;;3.25;1.60;;;28.10;99.90;;;;;;5040916;28;20258;-75
2022/07/03 06:20:00;;;;;;;2.70;1.60;;;28.70;99.90;;;;;;5053872;28;20242;-77
2022/07/03 06:22:28;;;;;;;4.15;1.90;;;29.10;99.90;;;;;;5053846;28;20212;-76
2022/07/03 06:24:56;;;;;;;3.33;1.60;;;29.70;99.90;;;;;;5053458;28;20216;-77
2022/07/03 06:27:24;;;;;;;3.33;1.70;;;29.80;99.90;;;;;;5054287;28;20208;-76
2022/07/03 06:29:52;;;;;;;3.20;1.67;;;30.00;99.80;;;;;;5053829;28;20633;-77
2022/07/03 06:32:21;;;;;;;2.40;1.63;;;30.60;99.20;;;;;;5053389;28;20247;-76
2022/07/03 06:34:50;;;;;;;3.28;1.80;;;30.80;98.30;;;;;;5053233;28;20247;-78
2022/07/03 06:37:19;;;;;;;3.90;1.50;;;30.90;98.40;;;;;;5059990;28;20252;-76
2022/07/03 06:39:47;;;;;;;1.98;1.50;;;31.20;97.00;;;;;;5069817;28;20208;-77
2022/07/03 06:42:15;;;;;;;3.03;1.70;;;31.20;96.60;;;;;;5070913;28;20200;-75
2022/07/03 06:44:44;;;;;;;3.05;1.38;;;31.30;95.40;;;;;;5070192;28;20286;-77
2022/07/03 06:47:19;;;;;;;1.67;1.42;;;31.60;96.50;;;;;;5071454;28;20192;-77
2022/07/03 06:49:47;;;;;;;1.75;1.50;;;32.20;94.40;;;;;;5070414;28;20204;-77
2022/07/03 06:52:16;;;;;;;4.25;1.50;;;32.80;93.70;;;;;;5070829;28;20205;-78
2022/07/03 06:54:44;;;;;;;1.92;1.70;;;32.90;93.30;;;;;;5070771;28;20227;-76
2022/07/03 06:57:13;;;;;;;1.73;1.63;;;33.00;91.90;;;;;;5057697;28;20760;-77
2022/07/03 06:59:42;;;;;;;2.67;1.63;;;33.50;92.20;;;;;;5055620;28;20239;-75
2022/07/03 07:02:11;;;;;;;2.88;1.55;;;33.60;90.90;;;;;;5055672;28;20212;-77
2022/07/03 07:04:39;;;;;;;2.17;1.70;;;33.60;91.20;;;;;;5055766;28;20232;-76
2022/07/03 07:07:07;;;;;;;2.80;1.50;;;33.30;90.60;;;;;;5055189;28;20248;-76
2022/07/03 07:09:37;;;;;;;2.03;1.40;;;33.60;90.30;;;;;;5054902;28;20248;-78
2022/07/03 07:12:06;;;;;;;2.50;1.50;;;33.90;88.40;;;;;;5040967;28;20244;-76
2022/07/03 07:14:35;;;;;;;3.05;1.50;;;33.40;89.40;;;;;;5035356;28;20251;-77
2022/07/03 07:17:03;;;;;;;1.52;1.38;;;33.60;89.40;;;;;;5050040;28;20764;-77
2022/07/03 07:19:32;;;;;;;1.85;1.40;;;33.20;90.30;;;;;;5049820;28;20201;-77
2022/07/03 07:22:00;;;;;;;1.75;1.50;;;33.30;90.20;;;;;;5035185;28;20734;-77
2022/07/03 07:24:29;;;;;;;1.50;1.20;;;33.50;88.90;;;;;;5035445;28;20245;-77
2022/07/03 07:26:59;;;;;;;2.28;1.60;;;34.10;89.20;;;;;;5039704;28;20213;-77
2022/07/03 07:29:27;;;;;;;1.30;1.20;;;34.40;86.50;;;;;;5035286;28;20251;-77
2022/07/03 07:31:56;;;;;;;1.92;1.48;;;34.40;86.80;;;;;;5044988;28;20655;-78
2022/07/03 07:34:24;;;;;;;1.58;1.40;;;34.40;87.60;;;;;;5035511;28;20630;-78
2022/07/03 07:36:52;;;;;;;2.13;1.48;;;35.20;85.60;;;;;;5040815;28;20200;-77
2022/07/03 07:39:21;;;;;;;2.67;1.30;;;35.60;82.10;;;;;;5054644;28;20247;-77
2022/07/03 07:41:49;;;;;;;1.35;1.25;;;35.30;83.40;;;;;;5054794;28;21496;-77
2022/07/03 07:44:19;;;;;;;3.38;1.50;;;34.70;84.00;;;;;;5054639;28;20270;-77
2022/07/03 07:46:48;;;;;;;1.42;1.33;;;34.80;84.30;;;;;;5053509;28;20215;-77
2022/07/03 07:49:17;;;;;;;1.50;1.40;;;34.80;83.10;;;;;;5053125;28;20613;-77
2022/07/03 07:51:45;;;;;;;2.35;1.40;;;35.40;81.40;;;;;;5054420;28;20196;-77
2022/07/03 07:54:14;;;;;;;2.42;1.30;;;35.40;80.60;;;;;;5054465;28;20204;-78
2022/07/03 07:56:42;;;;;;;2.33;1.50;;;35.90;80.50;;;;;;5053901;28;20223;-76
2022/07/03 07:59:10;;;;;;;1.67;1.58;;;36.10;80.30;;;;;;5054281;28;20235;-79
2022/07/03 08:07:11;;;;;;;2.75;1.30;;;35.70;79.00;;;;;;5051328;28;20231;-76
2022/07/03 08:09:39;;;;;;;3.00;1.30;;;36.10;78.90;;;;;;5054161;28;20240;-76
2022/07/03 08:12:07;;;;;;;2.97;1.42;;;36.30;76.90;;;;;;5040110;28;20248;-79
2022/07/03 08:14:36;;;;;;;1.75;1.40;;;36.30;78.70;;;;;;5047312;28;20200;-76
2022/07/03 08:17:06;;;;;;;2.28;1.30;;;36.40;74.70;;;;;;5054093;28;20247;-78
2022/07/03 08:19:34;;;;;;;1.42;1.20;;;36.60;72.60;;;;;;5053274;28;20200;-77
2022/07/03 08:22:03;;;;;;;1.45;1.35;;;36.00;73.30;;;;;;5054572;28;20266;-77
2022/07/03 08:24:31;;;;;;;1.48;1.38;;;36.20;74.60;;;;;;5053822;28;20295;-77
2022/07/03 08:26:59;;;;;;;1.50;1.40;;;36.40;75.30;;;;;;5053933;28;20259;-78
2022/07/03 08:29:28;;;;;;;3.65;1.55;;;36.20;73.40;;;;;;5053208;28;20200;-77
2022/07/03 08:32:01;;;;;;;2.10;1.30;;;36.00;74.50;;;;;;5054050;28;20196;-78
2022/07/03 08:34:31;;;;;;;4.85;1.52;;;35.70;72.30;;;;;;5053752;28;20662;-77
2022/07/03 08:36:59;;;;;;;1.50;1.40;;;36.00;76.60;;;;;;5053503;28;20678;-77
2022/07/03 08:39:27;;;;;;;1.55;1.45;;;36.10;71.60;;;;;;5053580;28;20270;-78
2022/07/03 08:41:56;;;;;;;2.58;1.50;;;36.30;73.10;;;;;;5053268;28;20243;-77
2022/07/03 08:44:25;;;;;;;3.40;1.60;;;36.30;73.40;;;;;;5053841;28;20235;-79
2022/07/03 08:46:56;;;;;;;1.50;1.40;;;36.30;72.60;;;;;;5054942;28;20628;-78
2022/07/03 08:49:26;;;;;;;1.75;1.42;;;35.90;76.10;;;;;;5053722;28;20320;-78
2022/07/03 08:51:56;;;;;;;3.28;1.55;;;36.40;75.20;;;;;;5054825;28;20212;-78
2022/07/03 08:54:24;;;;;;;2.30;1.60;;;36.40;73.00;;;;;;5054974;28;20282;-79
2022/07/03 08:56:52;;;;;;;1.40;1.30;;;36.00;71.50;;;;;;5053546;28;20259;-77
2022/07/03 08:59:24;;;;;;;2.92;1.60;;;36.30;70.10;;;;;;5053677;28;20220;-78
2022/07/03 09:01:53;;;;;;;1.75;1.52;;;36.40;70.60;;;;;;5052712;28;20208;-78
2022/07/03 09:04:22;;;;;;;2.70;1.60;;;37.20;68.80;;;;;;5070384;28;20235;-78
2022/07/03 09:06:51;;;;;;;1.70;1.60;;;37.00;72.10;;;;;;5062642;28;20610;-76
2022/07/03 09:09:25;;;;;;;1.70;1.60;;;36.50;72.30;;;;;;5054397;28;20689;-76
2022/07/03 09:11:53;;;;;;;1.58;1.27;;;37.00;69.70;;;;;;5042852;28;20718;-76
2022/07/03 09:14:22;;;;;;;1.58;1.45;;;37.10;69.70;;;;;;5051598;28;20246;-77
2022/07/03 09:16:50;;;;;;;2.13;1.50;;;36.80;69.00;;;;;;5055181;28;20233;-77
2022/07/03 09:19:41;;;;;;;1.73;1.40;;;37.40;67.10;;;;;;5054768;28;20216;-78
2022/07/03 09:22:22;;;;;;;1.50;1.40;;;36.60;69.30;;;;;;5052104;28;20235;-79
2022/07/03 09:24:53;;;;;;;2.13;1.45;;;36.10;70.10;;;;;;5052726;28;20200;-77
2022/07/03 09:27:23;;;;;;;1.60;1.48;;;36.40;72.30;;;;;;5053782;28;20231;-78
2022/07/03 09:30:02;;;;;;;1.42;1.30;;;36.90;70.30;;;;;;5054342;28;20291;-78
2022/07/03 09:32:41;;;;;;;1.70;1.30;;;36.50;70.60;;;;;;5052768;28;20212;-80
2022/07/03 09:35:20;;;;;;;2.17;2.00;;;36.30;71.10;;;;;;5053658;28;20270;-79
2022/07/03 09:37:54;;;;;;;1.42;1.30;;;36.80;71.20;;;;;;5052876;28;20343;-76
2022/07/03 09:40:24;;;;;;;1.40;1.30;;;37.10;71.40;;;;;;5050499;28;20240;-75
2022/07/03 09:43:01;;;;;;;1.73;1.10;;;37.20;69.10;;;;;;5032976;28;20751;-77
2022/07/03 09:45:50;;;;;;;1.85;1.23;;;37.40;67.30;;;;;;5032222;28;20247;-77
2022/07/03 09:48:27;;;;;;;1.30;1.20;;;36.70;64.90;;;;;;5043730;28;20193;-78
2022/07/03 09:51:15;;;;;;;1.45;1.10;;;37.00;64.60;;;;;;5052551;28;20203;-78
2022/07/03 09:53:50;;;;;;;1.38;1.20;;;37.20;63.80;;;;;;5052684;28;20243;-76
2022/07/03 09:56:26;;;;;;;3.20;1.20;;;36.90;64.70;;;;;;5052545;28;20216;-76
2022/07/03 09:59:09;;;;;;;1.42;1.10;;;36.80;64.00;;;;;;5053299;28;20220;-77
2022/07/03 10:01:39;;;;;;;1.08;1.08;;;37.00;62.60;;;;;;5054027;28;20192;-78
2022/07/03 10:04:13;;;;;;;1.30;1.20;;;37.30;61.10;;;;;;5053584;28;20207;-79
2022/07/03 10:06:53;;;;;;;1.77;1.15;;;37.20;59.20;;;;;;5052374;28;20193;-78
2022/07/03 10:09:23;;;;;;;3.92;1.25;;;37.00;58.50;;;;;;5051874;28;20262;-79
2022/07/03 10:11:54;;;;;;;2.05;1.13;;;36.30;62.90;;;;;;5046831;28;20204;-78
2022/07/03 10:14:24;;;;;;;0.95;0.95;;;36.50;58.10;;;;;;5051095;28;20243;-77
2022/07/03 10:16:52;;;;;;;1.00;1.00;;;36.70;56.90;;;;;;5049961;28;20622;-76
2022/07/03 10:19:22;;;;;;;1.27;1.15;;;36.60;58.00;;;;;;5049398;28;20297;-78
2022/07/03 10:21:55;;;;;;;2.25;1.10;;;36.70;59.00;;;;;;5051577;28;20208;-77
2022/07/03 10:24:25;;;;;;;2.15;1.10;;;37.10;58.80;;;;;;5051160;28;20204;-78
2022/07/03 10:26:56;;;;;;;1.27;1.10;;;37.10;58.80;;;;;;5051357;28;20235;-76
2022/07/03 10:29:26;;;;;;;1.02;0.93;;;36.90;57.90;;;;;;5050676;28;20192;-78
2022/07/03 10:31:56;;;;;;;3.00;1.08;;;37.00;58.00;;;;;;5054989;28;20216;-77
2022/07/03 10:34:27;;;;;;;1.20;1.10;;;36.70;59.00;;;;;;5055060;28;20215;-76
2022/07/03 10:36:59;;;;;;;0.98;0.98;;;36.70;55.90;;;;;;5055135;28;20247;-77
2022/07/03 10:39:49;;;;;;;0.95;0.95;;;36.60;55.50;;;;;;5054966;28;20212;-78
2022/07/03 10:45:20;;;;;;;1.95;1.10;;;36.20;57.40;;;;;;5055265;28;20207;-78
2022/07/03 10:47:50;;;;;;;0.80;0.80;;;36.10;59.60;;;;;;5049424;28;20213;-78
2022/07/03 10:50:20;;;;;;;2.13;0.95;;;35.80;60.80;;;;;;5054609;28;20662;-78
2022/07/03 10:52:49;;;;;;;3.13;1.17;;;35.90;58.60;;;;;;5055317;28;20271;-78
2022/07/03 10:55:18;;;;;;;1.15;1.02;;;36.10;60.20;;;;;;5055364;28;20204;-77
2022/07/03 10:58:09;;;;;;;2.13;1.00;;;35.80;56.80;;;;;;5055049;28;20227;-79
2022/07/03 11:00:53;;;;;;;1.38;0.80;;;36.00;58.50;;;;;;5055007;28;20248;-78
2022/07/03 11:03:53;;;;;;;1.95;1.10;;;36.40;60.80;;;;;;5054923;28;20219;-77
2022/07/03 11:06:21;;;;;;;1.58;0.90;;;36.20;58.10;;;;;;5049837;28;20219;-80
2022/07/03 11:09:05;;;;;;;0.90;0.90;;;36.00;57.60;;;;;;5054202;28;20267;-78
2022/07/03 11:11:57;;;;;;;0.90;0.90;;;36.20;58.00;;;;;;5054799;28;20222;-77
2022/07/03 11:14:27;;;;;;;1.33;0.93;;;36.40;57.80;;;;;;5054213;28;20208;-75
2022/07/03 11:17:17;;;;;;;3.38;0.98;;;36.20;57.80;;;;;;5053754;28;20761;-78
2022/07/03 11:22:41;;;;;;;1.33;0.73;;;35.40;58.80;;;;;;5053030;28;20295;-78
2022/07/03 11:25:13;;;;;;;1.20;1.10;;;35.70;58.30;;;;;;5054628;28;20196;-77
2022/07/03 11:27:41;;;;;;;1.40;1.23;;;36.10;58.20;;;;;;5054640;28;20227;-77
2022/07/03 11:30:12;;;;;;;1.00;0.95;;;36.40;56.90;;;;;;5054189;28;20211;-79
2022/07/03 11:32:49;;;;;;;1.08;0.90;;;36.10;59.30;;;;;;5054294;28;20618;-76
2022/07/03 11:35:43;;;;;;;2.95;1.23;;;35.90;56.30;;;;;;5053502;28;20206;-77
2022/07/03 11:38:12;;;;;;;3.00;1.00;;;35.70;56.90;;;;;;5044191;28;20213;-75
2022/07/03 11:40:44;;;;;;;1.10;0.95;;;35.40;56.90;;;;;;5053645;28;20314;-79
2022/07/03 11:43:12;;;;;;;1.50;1.00;;;34.60;57.70;;;;;;5052698;28;20208;-78
2022/07/03 11:45:42;;;;;;;4.22;0.90;;;34.50;61.10;;;;;;5054174;28;20244;-76
2022/07/03 11:48:15;;;;;;;1.05;0.90;;;34.50;58.60;;;;;;5043100;28;20259;-76
2022/07/03 11:50:45;;;;;;;2.33;1.05;;;33.80;61.20;;;;;;5033811;28;20211;-77
2022/07/03 11:53:18;;;;;;;2.13;0.93;;;33.60;57.90;;;;;;5034220;28;20251;-78
2022/07/03 11:55:53;;;;;;;0.82;0.82;;;33.40;63.00;;;;;;5053582;28;20208;-77
2022/07/03 11:58:22;;;;;;;0.90;0.90;;;33.20;63.10;;;;;;5053897;28;20231;-77
2022/07/03 12:00:52;;;;;;;0.70;0.70;;;33.10;60.10;;;;;;5053367;28;20662;-76
2022/07/03 12:03:26;;;;;;;1.15;0.88;;;33.30;65.20;;;;;;5053546;28;20227;-78
2022/07/03 12:05:57;;;;;;;0.80;0.80;;;33.20;62.30;;;;;;5053665;28;20279;-75
2022/07/03 12:08:27;;;;;;;2.47;0.95;;;32.70;64.60;;;;;;5053319;28;20682;-76
2022/07/03 12:11:02;;;;;;;0.80;0.80;;;32.50;58.60;;;;;;5053182;28;20259;-79
2022/07/03 12:13:32;;;;;;;2.17;0.65;;;32.60;62.60;;;;;;5053040;28;20857;-76
2022/07/03 12:16:10;;;;;;;0.68;0.60;;;32.80;58.50;;;;;;5053339;28;20630;-78
2022/07/03 12:18:45;;;;;;;1.20;0.68;;;32.60;60.30;;;;;;5050398;28;20208;-77
2022/07/03 12:21:15;;;;;;;1.00;0.90;;;32.60;56.20;;;;;;5053334;28;20278;-75
2022/07/03 12:23:45;;;;;;;1.75;0.85;;;32.50;61.40;;;;;;5053355;28;20243;-76
2022/07/03 12:26:13;;;;;;;0.60;0.60;;;32.60;59.30;;;;;;5053171;28;20196;-76
2022/07/03 12:28:41;;;;;;;0.60;0.60;;;32.50;60.60;;;;;;5053187;28;20207;-75
2022/07/03 12:31:11;;;;;;;2.00;0.63;;;32.30;63.00;;;;;;5053065;28;20208;-75
2022/07/03 12:33:40;;;;;;;0.73;0.73;;;32.40;60.50;;;;;;5052815;28;20205;-75
2022/07/03 12:36:10;;;;;;;2.10;0.80;;;32.20;62.30;;;;;;5053136;28;20216;-76
2022/07/03 12:38:40;;;;;;;1.63;0.80;;;32.10;61.90;;;;;;5053255;28;20262;-77
2022/07/03 12:41:16;;;;;;;1.10;0.73;;;32.30;61.90;;;;;;5053334;28;20310;-75
2022/07/03 12:43:48;;;;;;;1.93;0.90;;;32.10;63.50;;;;;;5055226;28;20236;-76
2022/07/03 12:46:22;;;;;;;0.70;0.70;;;32.20;60.00;;;;;;5053866;28;20212;-76
2022/07/03 12:48:52;;;;;;;0.63;0.63;;;32.30;64.70;;;;;;5039027;28;20240;-76
2022/07/03 12:51:43;;;;;;;1.80;0.80;;;32.50;61.00;;;;;;5036444;28;20624;-75
2022/07/03 12:54:15;;;;;;;0.77;0.60;;;32.50;62.40;;;;;;5038654;28;20213;-76
2022/07/03 12:56:44;;;;;;;1.27;0.70;;;32.30;60.90;;;;;;5038055;28;20232;-78
2022/07/03 12:59:28;;;;;;;0.70;0.70;;;32.40;59.70;;;;;;5036585;28;20213;-77
2022/07/03 13:02:05;;;;;;;1.07;1.00;;;32.30;59.10;;;;;;5051681;28;20208;-78
2022/07/03 13:04:36;;;;;;;0.73;0.73;;;32.40;56.50;;;;;;5057180;28;20218;-76
2022/07/03 13:07:06;;;;;;;1.07;0.80;;;32.30;58.90;;;;;;5053938;28;20258;-78
2022/07/03 13:09:34;;;;;;;0.70;0.70;;;32.40;59.90;;;;;;5036128;28;20259;-77
2022/07/03 13:12:03;;;;;;;0.97;0.70;;;32.30;61.30;;;;;;5037205;28;20248;-75
2022/07/03 13:14:32;;;;;;;0.83;0.70;;;32.30;58.10;;;;;;5035959;28;20212;-80
2022/07/03 13:17:00;;;;;;;1.57;0.73;;;32.20;58.80;;;;;;5049080;28;20208;-79
2022/07/03 13:19:30;;;;;;;0.80;0.80;;;32.20;59.50;;;;;;5054011;28;20196;-75
2022/07/03 13:21:59;;;;;;;1.73;0.73;;;32.30;58.90;;;;;;5054982;28;20231;-78